createdAt,value
2019-03-29T00:00:03.914Z,0.00
2019-03-29T00:01:03.886Z,0.00
2019-03-29T00:02:03.860Z,0.00
2019-03-29T00:03:03.839Z,0.00
2019-03-29T00:04:03.837Z,0.00
2019-03-29T00:05:03.822Z,0.00
2019-03-29T00:06:03.847Z,0.00
2019-03-29T00:07:04.095Z,0.00
2019-03-29T00:08:03.787Z,0.00
2019-03-29T00:09:03.772Z,0.00
2019-03-29T00:10:03.773Z,0.00
2019-03-29T00:11:03.750Z,0.00
2019-03-29T00:12:04.839Z,0.00
2019-03-29T00:13:03.755Z,0.00
2019-03-29T00:14:03.726Z,0.00
2019-03-29T00:15:03.700Z,0.00
2019-03-29T00:16:03.709Z,0.00
2019-03-29T00:17:03.689Z,0.00
2019-03-29T00:18:03.721Z,0.00
2019-03-29T00:19:03.684Z,0.00
2019-03-29T00:20:06.144Z,0.00
2019-03-29T00:21:04.276Z,0.00
2019-03-29T00:22:04.938Z,0.00
2019-03-29T00:23:03.626Z,0.00
2019-03-29T00:24:07.080Z,0.00
2019-03-29T00:25:03.631Z,0.00
2019-03-29T00:26:03.586Z,0.00
2019-03-29T00:27:03.592Z,0.00
2019-03-29T00:28:03.566Z,0.00
2019-03-29T00:29:03.559Z,0.00
2019-03-29T00:30:03.539Z,0.00
2019-03-29T00:31:03.566Z,0.00
2019-03-29T00:32:03.531Z,0.00
2019-03-29T00:33:03.526Z,0.00
2019-03-29T00:34:03.495Z,0.00
2019-03-29T00:35:03.491Z,0.00
2019-03-29T00:36:03.509Z,0.00
2019-03-29T00:37:03.472Z,0.00
2019-03-29T00:38:03.451Z,0.00
2019-03-29T00:39:03.479Z,0.00
2019-03-29T00:40:03.464Z,0.00
2019-03-29T00:41:03.450Z,0.00
2019-03-29T00:42:03.406Z,0.00
2019-03-29T00:43:03.443Z,0.00
2019-03-29T00:44:03.413Z,0.00
2019-03-29T00:45:03.370Z,0.00
2019-03-29T00:46:03.403Z,0.00
2019-03-29T00:47:04.073Z,0.00
2019-03-29T00:48:03.342Z,0.00
2019-03-29T00:49:03.347Z,0.00
2019-03-29T00:50:03.326Z,0.00
2019-03-29T00:51:03.316Z,0.00
2019-03-29T00:52:03.294Z,0.00
2019-03-29T00:53:03.324Z,0.00
2019-03-29T00:54:03.300Z,0.00
2019-03-29T00:55:03.264Z,0.00
2019-03-29T00:56:03.260Z,0.00
2019-03-29T00:57:03.238Z,0.00
2019-03-29T00:58:03.235Z,0.00
2019-03-29T00:59:03.255Z,0.00
2019-03-29T01:00:03.208Z,0.00
2019-03-29T01:01:03.201Z,0.00
2019-03-29T01:02:03.195Z,0.00
2019-03-29T01:03:03.176Z,0.00
2019-03-29T01:04:03.288Z,0.00
2019-03-29T01:05:03.202Z,0.00
2019-03-29T01:06:03.780Z,0.00
2019-03-29T01:07:03.327Z,0.00
2019-03-29T01:08:08.288Z,0.00
2019-03-29T01:09:04.304Z,0.00
2019-03-29T01:10:03.782Z,0.00
2019-03-29T01:11:03.099Z,0.00
2019-03-29T01:12:03.079Z,0.00
2019-03-29T01:13:03.104Z,0.00
2019-03-29T01:14:03.055Z,0.00
2019-03-29T01:15:03.045Z,0.00
2019-03-29T01:16:03.043Z,0.00
2019-03-29T01:17:03.030Z,0.00
2019-03-29T01:18:03.016Z,0.00
2019-03-29T01:19:03.907Z,0.00
2019-03-29T01:20:03.014Z,0.00
2019-03-29T01:21:02.985Z,0.00
2019-03-29T01:22:02.982Z,0.00
2019-03-29T01:23:03.103Z,0.00
2019-03-29T01:24:03.000Z,0.00
2019-03-29T01:25:02.937Z,0.00
2019-03-29T01:26:02.974Z,0.00
2019-03-29T01:27:02.918Z,0.00
2019-03-29T01:28:02.911Z,0.00
2019-03-29T01:29:02.953Z,0.00
2019-03-29T01:30:02.936Z,0.00
2019-03-29T01:31:02.906Z,0.00
2019-03-29T01:32:02.865Z,0.00
2019-03-29T01:33:02.853Z,0.00
2019-03-29T01:34:02.842Z,0.00
2019-03-29T01:35:02.835Z,0.00
2019-03-29T01:36:03.087Z,0.00
2019-03-29T01:37:02.806Z,0.00
2019-03-29T01:38:02.796Z,0.00
2019-03-29T01:39:02.826Z,0.00
2019-03-29T01:40:02.780Z,0.00
2019-03-29T01:41:02.779Z,0.00
2019-03-29T01:42:02.812Z,0.00
2019-03-29T01:43:02.748Z,0.00
2019-03-29T01:44:02.748Z,0.00
2019-03-29T01:45:02.727Z,0.00
2019-03-29T01:46:02.718Z,0.00
2019-03-29T01:47:03.898Z,0.00
2019-03-29T01:48:02.735Z,0.00
2019-03-29T01:49:02.691Z,0.00
2019-03-29T01:50:02.682Z,0.00
2019-03-29T01:51:02.662Z,0.00
2019-03-29T01:52:02.664Z,0.00
2019-03-29T01:53:02.716Z,0.00
2019-03-29T01:54:04.074Z,0.00
2019-03-29T01:55:02.620Z,0.00
2019-03-29T01:56:02.602Z,0.00
2019-03-29T01:57:02.634Z,0.00
2019-03-29T01:58:03.287Z,0.00
2019-03-29T01:59:02.610Z,0.00
2019-03-29T02:00:02.788Z,0.00
2019-03-29T02:01:03.046Z,0.00
2019-03-29T02:02:02.580Z,0.00
2019-03-29T02:03:02.694Z,0.00
2019-03-29T02:04:05.617Z,0.00
2019-03-29T02:05:02.495Z,0.00
2019-03-29T02:06:02.526Z,0.00
2019-03-29T02:07:03.287Z,0.00
2019-03-29T02:08:02.543Z,0.00
2019-03-29T02:09:02.460Z,0.00
2019-03-29T02:10:03.293Z,0.00
2019-03-29T02:11:02.502Z,0.00
2019-03-29T02:12:02.484Z,0.00
2019-03-29T02:13:03.294Z,0.00
2019-03-29T02:14:02.420Z,0.00
2019-03-29T02:15:02.417Z,0.00
2019-03-29T02:16:03.801Z,0.00
2019-03-29T02:17:02.378Z,0.00
2019-03-29T02:18:02.381Z,0.00
2019-03-29T02:19:02.521Z,0.00
2019-03-29T02:20:02.340Z,0.00
2019-03-29T02:21:02.353Z,0.00
2019-03-29T02:22:02.317Z,0.00
2019-03-29T02:23:02.429Z,0.00
2019-03-29T02:24:02.312Z,0.00
2019-03-29T02:25:02.281Z,0.00
2019-03-29T02:26:02.289Z,0.00
2019-03-29T02:27:02.256Z,0.00
2019-03-29T02:28:02.244Z,0.00
2019-03-29T02:29:02.235Z,0.00
2019-03-29T02:30:04.368Z,0.00
2019-03-29T02:31:02.256Z,0.00
2019-03-29T02:32:02.386Z,0.00
2019-03-29T02:33:02.187Z,0.00
2019-03-29T02:34:02.197Z,0.00
2019-03-29T02:35:02.170Z,0.00
2019-03-29T02:36:02.173Z,0.00
2019-03-29T02:37:02.650Z,0.00
2019-03-29T02:38:02.139Z,0.00
2019-03-29T02:39:02.126Z,0.00
2019-03-29T02:40:02.795Z,0.00
2019-03-29T02:41:02.123Z,0.00
2019-03-29T02:42:02.091Z,0.00
2019-03-29T02:43:02.110Z,0.00
2019-03-29T02:44:02.062Z,0.00
2019-03-29T02:45:03.316Z,0.00
2019-03-29T02:46:02.053Z,0.00
2019-03-29T02:47:02.035Z,0.00
2019-03-29T02:48:02.047Z,0.00
2019-03-29T02:49:02.030Z,0.00
2019-03-29T02:50:02.012Z,0.00
2019-03-29T02:51:02.016Z,0.00
2019-03-29T02:52:01.994Z,0.00
2019-03-29T02:53:01.998Z,0.00
2019-03-29T02:54:01.979Z,0.00
2019-03-29T02:55:01.947Z,0.00
2019-03-29T02:56:01.935Z,0.00
2019-03-29T02:57:01.955Z,0.00
2019-03-29T02:58:01.921Z,0.00
2019-03-29T02:59:01.961Z,0.00
2019-03-29T03:00:01.935Z,0.00
2019-03-29T03:01:01.887Z,0.00
2019-03-29T03:02:01.905Z,0.00
2019-03-29T03:03:01.855Z,0.00
2019-03-29T03:04:01.859Z,0.00
2019-03-29T03:05:01.840Z,0.00
2019-03-29T03:06:01.853Z,0.00
2019-03-29T03:07:01.843Z,0.00
2019-03-29T03:08:01.848Z,0.00
2019-03-29T03:09:13.067Z,0.00
2019-03-29T03:10:02.873Z,0.00
2019-03-29T03:11:01.772Z,0.00
2019-03-29T03:12:01.764Z,0.00
2019-03-29T03:13:01.745Z,0.00
2019-03-29T03:14:01.763Z,0.00
2019-03-29T03:15:01.892Z,0.00
2019-03-29T03:16:01.733Z,0.00
2019-03-29T03:17:01.765Z,0.00
2019-03-29T03:18:01.758Z,0.00
2019-03-29T03:19:01.689Z,0.00
2019-03-29T03:20:01.688Z,0.00
2019-03-29T03:21:01.681Z,0.00
2019-03-29T03:22:01.653Z,0.00
2019-03-29T03:23:01.746Z,0.00
2019-03-29T03:24:01.634Z,0.00
2019-03-29T03:25:01.652Z,0.00
2019-03-29T03:26:01.626Z,0.00
2019-03-29T03:27:01.611Z,0.00
2019-03-29T03:28:01.608Z,0.00
2019-03-29T03:29:01.582Z,0.00
2019-03-29T03:30:01.591Z,0.00
2019-03-29T03:31:01.601Z,0.00
2019-03-29T03:32:01.556Z,0.00
2019-03-29T03:33:01.799Z,0.00
2019-03-29T03:34:01.684Z,0.00
2019-03-29T03:35:01.525Z,0.00
2019-03-29T03:36:01.517Z,0.00
2019-03-29T03:37:01.526Z,0.00
2019-03-29T03:38:01.481Z,0.00
2019-03-29T03:39:01.567Z,0.00
2019-03-29T03:40:01.461Z,0.00
2019-03-29T03:41:01.457Z,0.00
2019-03-29T03:42:01.481Z,0.00
2019-03-29T03:43:01.424Z,0.00
2019-03-29T03:44:01.424Z,0.00
2019-03-29T03:45:01.403Z,0.00
2019-03-29T03:46:01.392Z,0.00
2019-03-29T03:47:01.381Z,0.00
2019-03-29T03:48:01.405Z,0.00
2019-03-29T03:49:01.366Z,0.00
2019-03-29T03:50:01.937Z,0.00
2019-03-29T03:51:01.353Z,0.00
2019-03-29T03:52:01.393Z,0.00
2019-03-29T03:53:01.318Z,0.00
2019-03-29T03:54:01.339Z,0.00
2019-03-29T03:55:01.475Z,0.00
2019-03-29T03:56:01.282Z,0.00
2019-03-29T03:57:01.271Z,0.00
2019-03-29T03:58:01.326Z,0.00
2019-03-29T03:59:01.269Z,0.00
2019-03-29T04:00:01.269Z,0.00
2019-03-29T04:01:01.230Z,0.00
2019-03-29T04:02:01.225Z,0.00
2019-03-29T04:03:01.209Z,0.00
2019-03-29T04:04:01.199Z,0.00
2019-03-29T04:05:01.252Z,0.00
2019-03-29T04:06:01.166Z,0.00
2019-03-29T04:07:01.163Z,0.00
2019-03-29T04:08:01.162Z,0.00
2019-03-29T04:09:01.139Z,0.00
2019-03-29T04:10:01.137Z,0.00
2019-03-29T04:11:01.289Z,0.00
2019-03-29T04:12:01.112Z,0.00
2019-03-29T04:13:01.103Z,0.00
2019-03-29T04:14:01.084Z,0.00
2019-03-29T04:15:01.078Z,0.00
2019-03-29T04:16:01.085Z,0.00
2019-03-29T04:17:01.063Z,0.00
2019-03-29T04:18:01.044Z,0.00
2019-03-29T04:19:01.190Z,0.00
2019-03-29T04:20:01.020Z,0.00
2019-03-29T04:21:01.008Z,0.00
2019-03-29T04:22:01.059Z,0.00
2019-03-29T04:23:01.001Z,0.00
2019-03-29T04:24:00.984Z,0.00
2019-03-29T04:25:00.969Z,0.00
2019-03-29T04:26:00.964Z,0.00
2019-03-29T04:27:01.028Z,0.00
2019-03-29T04:28:01.034Z,0.00
2019-03-29T04:29:04.791Z,0.00
2019-03-29T04:30:00.914Z,0.00
2019-03-29T04:31:00.897Z,0.00
2019-03-29T04:32:00.887Z,0.00
2019-03-29T04:33:00.882Z,0.00
2019-03-29T04:34:00.891Z,0.00
2019-03-29T04:35:00.855Z,0.00
2019-03-29T04:36:00.852Z,0.00
2019-03-29T04:37:00.839Z,0.00
2019-03-29T04:38:00.992Z,0.00
2019-03-29T04:39:00.813Z,0.00
2019-03-29T04:40:07.796Z,0.00
2019-03-29T04:41:01.789Z,0.00
2019-03-29T04:42:00.781Z,0.00
2019-03-29T04:43:00.771Z,0.00
2019-03-29T04:44:00.779Z,0.00
2019-03-29T04:45:00.748Z,0.00
2019-03-29T04:46:00.742Z,0.00
2019-03-29T04:47:00.734Z,0.00
2019-03-29T04:48:00.715Z,0.00
2019-03-29T04:49:00.703Z,0.00
2019-03-29T04:50:00.745Z,0.00
2019-03-29T04:51:00.683Z,0.00
2019-03-29T04:52:00.673Z,0.00
2019-03-29T04:53:00.672Z,0.00
2019-03-29T04:54:00.646Z,0.00
2019-03-29T04:55:00.636Z,0.00
2019-03-29T04:56:00.658Z,0.00
2019-03-29T04:57:00.618Z,0.00
2019-03-29T04:58:00.635Z,0.00
2019-03-29T04:59:00.601Z,0.00
2019-03-29T05:00:00.596Z,0.00
2019-03-29T05:01:00.596Z,0.00
2019-03-29T05:02:00.703Z,0.00
2019-03-29T05:03:00.561Z,0.00
2019-03-29T05:04:00.543Z,0.00
2019-03-29T05:05:00.576Z,0.00
2019-03-29T05:06:00.545Z,0.00
2019-03-29T05:07:00.530Z,0.00
2019-03-29T05:08:00.502Z,0.00
2019-03-29T05:09:04.741Z,0.00
2019-03-29T05:11:10.274Z,0.00
2019-03-29T05:12:10.311Z,0.00
2019-03-29T05:13:10.235Z,0.00
2019-03-29T05:14:10.223Z,0.00
2019-03-29T05:15:10.215Z,0.00
2019-03-29T05:16:10.198Z,0.00
2019-03-29T05:17:10.192Z,0.00
2019-03-29T05:18:10.279Z,0.00
2019-03-29T05:19:10.165Z,0.00
2019-03-29T05:20:10.181Z,0.00
2019-03-29T05:21:10.161Z,0.00
2019-03-29T05:22:10.147Z,0.00
2019-03-29T05:23:10.130Z,5.62
2019-03-29T05:24:10.200Z,5.62
2019-03-29T05:25:10.127Z,5.62
2019-03-29T05:26:10.134Z,5.62
2019-03-29T05:27:10.074Z,5.62
2019-03-29T05:28:10.086Z,5.62
2019-03-29T05:29:10.075Z,5.62
2019-03-29T05:30:10.048Z,5.62
2019-03-29T05:31:10.047Z,5.62
2019-03-29T05:32:10.033Z,5.62
2019-03-29T05:33:10.047Z,5.62
2019-03-29T05:34:10.014Z,5.62
2019-03-29T05:35:10.027Z,11.25
2019-03-29T05:36:09.984Z,11.25
2019-03-29T05:37:09.974Z,11.25
2019-03-29T05:38:09.986Z,11.25
2019-03-29T05:39:09.981Z,11.25
2019-03-29T05:40:09.975Z,11.25
2019-03-29T05:41:10.001Z,11.25
2019-03-29T05:42:09.939Z,11.25
2019-03-29T05:43:09.941Z,11.25
2019-03-29T05:44:09.928Z,11.25
2019-03-29T05:45:09.918Z,11.25
2019-03-29T05:46:09.881Z,16.88
2019-03-29T05:47:09.907Z,16.88
2019-03-29T05:48:09.852Z,16.88
2019-03-29T05:49:09.861Z,16.88
2019-03-29T05:50:09.970Z,16.88
2019-03-29T05:51:09.845Z,16.88
2019-03-29T05:52:09.808Z,16.88
2019-03-29T05:53:09.894Z,16.88
2019-03-29T05:54:09.808Z,16.88
2019-03-29T05:55:09.828Z,16.88
2019-03-29T05:56:09.769Z,16.88
2019-03-29T05:57:09.758Z,16.88
2019-03-29T05:58:09.943Z,22.50
2019-03-29T05:59:09.726Z,22.50
2019-03-29T06:00:09.730Z,22.50
2019-03-29T06:01:09.739Z,22.50
2019-03-29T06:02:09.710Z,22.50
2019-03-29T06:03:10.258Z,22.50
2019-03-29T06:04:09.733Z,22.50
2019-03-29T06:05:09.678Z,22.50
2019-03-29T06:06:09.663Z,22.50
2019-03-29T06:07:09.641Z,22.50
2019-03-29T06:08:09.641Z,22.50
2019-03-29T06:09:09.617Z,22.50
2019-03-29T06:10:09.662Z,22.50
2019-03-29T06:11:09.623Z,22.50
2019-03-29T06:12:09.593Z,28.12
2019-03-29T06:13:09.581Z,28.12
2019-03-29T06:14:09.753Z,28.12
2019-03-29T06:15:09.594Z,28.12
2019-03-29T06:16:09.539Z,28.12
2019-03-29T06:17:09.558Z,28.12
2019-03-29T06:18:09.548Z,28.12
2019-03-29T06:19:09.515Z,28.12
2019-03-29T06:20:09.544Z,28.12
2019-03-29T06:21:09.495Z,28.12
2019-03-29T06:22:09.480Z,28.12
2019-03-29T06:23:09.481Z,28.12
2019-03-29T06:24:09.452Z,28.12
2019-03-29T06:25:09.464Z,28.12
2019-03-29T06:26:09.522Z,28.12
2019-03-29T06:27:09.422Z,28.12
2019-03-29T06:28:09.457Z,33.75
2019-03-29T06:29:09.507Z,33.75
2019-03-29T06:30:09.410Z,33.75
2019-03-29T06:31:09.515Z,33.75
2019-03-29T06:32:09.353Z,33.75
2019-03-29T06:33:09.445Z,33.75
2019-03-29T06:34:09.354Z,33.75
2019-03-29T06:35:09.333Z,33.75
2019-03-29T06:36:09.423Z,33.75
2019-03-29T06:37:09.312Z,33.75
2019-03-29T06:38:09.328Z,33.75
2019-03-29T06:39:09.279Z,33.75
2019-03-29T06:40:09.270Z,33.75
2019-03-29T06:41:09.272Z,33.75
2019-03-29T06:42:09.330Z,33.75
2019-03-29T06:43:09.244Z,33.75
2019-03-29T06:44:09.252Z,33.75
2019-03-29T06:45:09.222Z,33.75
2019-03-29T06:46:09.233Z,33.75
2019-03-29T06:47:09.197Z,33.75
2019-03-29T06:48:09.231Z,39.38
2019-03-29T06:49:09.189Z,39.38
2019-03-29T06:50:09.282Z,39.38
2019-03-29T06:51:09.153Z,39.38
2019-03-29T06:52:09.143Z,39.38
2019-03-29T06:53:09.129Z,39.38
2019-03-29T06:54:09.178Z,39.38
2019-03-29T06:55:09.109Z,39.38
2019-03-29T06:56:09.122Z,39.38
2019-03-29T06:57:09.128Z,39.38
2019-03-29T06:58:09.122Z,45.00
2019-03-29T06:59:09.098Z,45.00
2019-03-29T07:00:09.069Z,39.38
2019-03-29T07:01:09.072Z,39.38
2019-03-29T07:02:09.053Z,39.38
2019-03-29T07:03:09.047Z,39.38
2019-03-29T07:04:09.007Z,45.00
2019-03-29T07:05:08.998Z,45.00
2019-03-29T07:06:08.998Z,39.38
2019-03-29T07:07:09.050Z,39.38
2019-03-29T07:08:09.065Z,39.38
2019-03-29T07:09:08.938Z,39.38
2019-03-29T07:10:08.987Z,39.38
2019-03-29T07:11:17.151Z,39.38
2019-03-29T07:12:09.921Z,39.38
2019-03-29T07:13:09.077Z,45.00
2019-03-29T07:14:08.927Z,45.00
2019-03-29T07:15:08.897Z,45.00
2019-03-29T07:16:08.949Z,45.00
2019-03-29T07:17:10.448Z,45.00
2019-03-29T07:18:08.882Z,45.00
2019-03-29T07:19:08.937Z,45.00
2019-03-29T07:20:08.837Z,45.00
2019-03-29T07:21:20.906Z,45.00
2019-03-29T07:22:09.815Z,45.00
2019-03-29T07:23:08.804Z,45.00
2019-03-29T07:24:08.785Z,45.00
2019-03-29T07:25:08.896Z,45.00
2019-03-29T07:26:08.782Z,45.00
2019-03-29T07:27:08.765Z,45.00
2019-03-29T07:28:08.737Z,45.00
2019-03-29T07:29:08.764Z,45.00
2019-03-29T07:30:08.744Z,45.00
2019-03-29T07:31:08.719Z,45.00
2019-03-29T07:32:08.712Z,45.00
2019-03-29T07:33:08.708Z,45.00
2019-03-29T07:34:08.698Z,45.00
2019-03-29T07:35:08.658Z,45.00
2019-03-29T07:36:08.676Z,45.00
2019-03-29T07:37:08.752Z,45.00
2019-03-29T07:38:08.655Z,45.00
2019-03-29T07:39:08.610Z,45.00
2019-03-29T07:40:08.656Z,45.00
2019-03-29T07:41:08.596Z,45.00
2019-03-29T07:42:08.664Z,45.00
2019-03-29T07:43:08.612Z,45.00
2019-03-29T07:44:08.560Z,45.00
2019-03-29T07:45:10.309Z,45.00
2019-03-29T07:46:08.557Z,45.00
2019-03-29T07:47:08.548Z,45.00
2019-03-29T07:48:08.588Z,45.00
2019-03-29T07:49:08.514Z,50.62
2019-03-29T07:50:08.504Z,50.62
2019-03-29T07:51:08.514Z,50.62
2019-03-29T07:52:08.494Z,50.62
2019-03-29T07:53:08.459Z,50.62
2019-03-29T07:54:08.572Z,50.62
2019-03-29T07:55:08.446Z,50.62
2019-03-29T07:56:08.555Z,50.62
2019-03-29T07:57:08.412Z,50.62
2019-03-29T07:58:08.446Z,50.62
2019-03-29T07:59:08.455Z,50.62
2019-03-29T08:00:08.417Z,50.62
2019-03-29T08:01:08.699Z,50.62
2019-03-29T08:02:08.371Z,50.62
2019-03-29T08:03:08.371Z,50.62
2019-03-29T08:04:08.375Z,50.62
2019-03-29T08:05:08.394Z,50.62
2019-03-29T08:06:08.302Z,50.62
2019-03-29T08:07:08.316Z,50.62
2019-03-29T08:08:22.741Z,50.62
2019-03-29T08:09:21.601Z,50.62
2019-03-29T08:10:18.913Z,50.62
2019-03-29T08:11:09.255Z,50.62
2019-03-29T08:12:08.393Z,50.62
2019-03-29T08:13:08.250Z,50.62
2019-03-29T08:14:08.236Z,50.62
2019-03-29T08:15:09.680Z,50.62
2019-03-29T08:16:08.262Z,50.62
2019-03-29T08:17:08.267Z,50.62
2019-03-29T08:18:08.172Z,50.62
2019-03-29T08:19:08.185Z,50.62
2019-03-29T08:20:37.508Z,50.62
2019-03-29T08:21:09.248Z,50.62
2019-03-29T08:22:08.157Z,50.62
2019-03-29T08:23:08.263Z,50.62
2019-03-29T08:24:08.156Z,50.62
2019-03-29T08:25:08.116Z,50.62
2019-03-29T08:26:08.176Z,50.62
2019-03-29T08:27:08.115Z,50.62
2019-03-29T08:28:08.067Z,50.62
2019-03-29T08:29:08.077Z,50.62
2019-03-29T08:30:08.056Z,50.62
2019-03-29T08:31:08.153Z,50.62
2019-03-29T08:32:08.023Z,50.62
2019-03-29T08:33:08.044Z,50.62
2019-03-29T08:34:08.031Z,50.62
2019-03-29T08:35:08.017Z,50.62
2019-03-29T08:36:08.013Z,50.62
2019-03-29T08:37:07.967Z,56.25
2019-03-29T08:38:08.013Z,56.25
2019-03-29T08:39:10.246Z,56.25
2019-03-29T08:40:07.946Z,56.25
2019-03-29T08:41:07.933Z,56.25
2019-03-29T08:42:07.922Z,56.25
2019-03-29T08:43:07.932Z,56.25
2019-03-29T08:44:11.546Z,56.25
2019-03-29T08:45:07.933Z,56.25
2019-03-29T08:46:07.875Z,56.25
2019-03-29T08:47:07.864Z,56.25
2019-03-29T08:48:07.860Z,56.25
2019-03-29T08:49:07.820Z,56.25
2019-03-29T08:50:07.854Z,56.25
2019-03-29T08:51:07.817Z,56.25
2019-03-29T08:52:07.805Z,56.25
2019-03-29T08:53:07.826Z,56.25
2019-03-29T08:54:07.805Z,56.25
2019-03-29T08:55:07.793Z,56.25
2019-03-29T08:56:07.785Z,56.25
2019-03-29T08:57:10.587Z,56.25
2019-03-29T08:58:07.735Z,56.25
2019-03-29T08:59:07.730Z,56.25
2019-03-29T09:00:07.769Z,56.25
2019-03-29T09:01:07.709Z,56.25
2019-03-29T09:02:07.709Z,56.25
2019-03-29T09:03:07.680Z,56.25
2019-03-29T09:04:07.689Z,56.25
2019-03-29T09:05:07.674Z,56.25
2019-03-29T09:06:07.706Z,56.25
2019-03-29T09:07:07.633Z,56.25
2019-03-29T09:08:07.629Z,56.25
2019-03-29T09:09:07.623Z,56.25
2019-03-29T09:10:07.628Z,56.25
2019-03-29T09:11:07.873Z,56.25
2019-03-29T09:12:14.376Z,56.25
2019-03-29T09:13:08.605Z,56.25
2019-03-29T09:14:07.549Z,56.25
2019-03-29T09:15:07.598Z,56.25
2019-03-29T09:16:07.538Z,61.88
2019-03-29T09:17:07.516Z,61.88
2019-03-29T09:18:07.528Z,61.88
2019-03-29T09:19:07.497Z,61.88
2019-03-29T09:20:10.395Z,61.88
2019-03-29T09:21:07.520Z,61.88
2019-03-29T09:22:07.688Z,61.88
2019-03-29T09:23:10.266Z,61.88
2019-03-29T09:24:20.726Z,61.88
2019-03-29T09:25:08.457Z,61.88
2019-03-29T09:26:07.436Z,61.88
2019-03-29T09:27:07.406Z,61.88
2019-03-29T09:28:07.479Z,61.88
2019-03-29T09:29:07.391Z,61.88
2019-03-29T09:30:07.403Z,61.88
2019-03-29T09:31:07.361Z,61.88
2019-03-29T09:32:07.362Z,61.88
2019-03-29T09:33:07.405Z,61.88
2019-03-29T09:34:07.436Z,61.88
2019-03-29T09:35:07.334Z,61.88
2019-03-29T09:36:07.316Z,61.88
2019-03-29T09:37:07.297Z,61.88
2019-03-29T09:38:07.459Z,61.88
2019-03-29T09:39:07.313Z,61.88
2019-03-29T09:40:07.281Z,61.88
2019-03-29T09:41:07.275Z,61.88
2019-03-29T09:42:09.636Z,61.88
2019-03-29T09:43:08.125Z,61.88
2019-03-29T09:44:07.217Z,61.88
2019-03-29T09:45:07.223Z,61.88
2019-03-29T09:46:08.420Z,61.88
2019-03-29T09:47:07.202Z,61.88
2019-03-29T09:48:07.179Z,67.50
2019-03-29T09:49:08.477Z,67.50
2019-03-29T09:50:10.087Z,67.50
2019-03-29T09:51:07.142Z,67.50
2019-03-29T09:52:07.211Z,67.50
2019-03-29T09:53:07.115Z,67.50
2019-03-29T09:54:07.097Z,67.50
2019-03-29T09:55:07.150Z,67.50
2019-03-29T09:56:07.099Z,67.50
2019-03-29T09:57:09.924Z,67.50
2019-03-29T09:58:07.061Z,67.50
2019-03-29T09:59:07.053Z,67.50
2019-03-29T10:00:17.962Z,67.50
2019-03-29T10:01:08.101Z,67.50
2019-03-29T10:02:07.045Z,67.50
2019-03-29T10:03:07.021Z,67.50
2019-03-29T10:04:06.989Z,67.50
2019-03-29T10:05:07.172Z,67.50
2019-03-29T10:06:07.043Z,67.50
2019-03-29T10:07:06.943Z,67.50
2019-03-29T10:08:07.116Z,67.50
2019-03-29T10:09:06.928Z,67.50
2019-03-29T10:10:06.941Z,67.50
2019-03-29T10:11:06.919Z,67.50
2019-03-29T10:12:06.970Z,67.50
2019-03-29T10:13:06.890Z,67.50
2019-03-29T10:14:06.882Z,67.50
2019-03-29T10:15:06.877Z,67.50
2019-03-29T10:16:06.857Z,73.12
2019-03-29T10:17:06.842Z,73.12
2019-03-29T10:18:06.884Z,73.12
2019-03-29T10:19:06.814Z,73.12
2019-03-29T10:20:06.828Z,73.12
2019-03-29T10:21:06.952Z,73.12
2019-03-29T10:22:06.785Z,73.12
2019-03-29T10:23:06.827Z,73.12
2019-03-29T10:24:06.804Z,73.12
2019-03-29T10:25:18.456Z,73.12
2019-03-29T10:26:07.772Z,73.12
2019-03-29T10:27:06.736Z,73.12
2019-03-29T10:28:06.740Z,73.12
2019-03-29T10:29:06.905Z,73.12
2019-03-29T10:30:06.696Z,73.12
2019-03-29T10:31:06.696Z,73.12
2019-03-29T10:32:09.394Z,73.12
2019-03-29T10:33:06.682Z,73.12
2019-03-29T10:34:06.669Z,73.12
2019-03-29T10:35:06.651Z,73.12
2019-03-29T10:36:06.643Z,78.75
2019-03-29T10:37:06.619Z,78.75
2019-03-29T10:38:06.621Z,78.75
2019-03-29T10:39:06.599Z,78.75
2019-03-29T10:40:06.628Z,78.75
2019-03-29T10:41:06.604Z,78.75
2019-03-29T10:42:06.575Z,78.75
2019-03-29T10:43:06.558Z,84.38
2019-03-29T10:44:06.584Z,84.38
2019-03-29T10:45:06.535Z,84.38
2019-03-29T10:46:06.515Z,84.38
2019-03-29T10:47:06.608Z,84.38
2019-03-29T10:48:06.718Z,84.38
2019-03-29T10:49:06.486Z,84.38
2019-03-29T10:50:06.496Z,84.38
2019-03-29T10:51:08.308Z,84.38
2019-03-29T10:52:06.446Z,84.38
2019-03-29T10:53:06.517Z,84.38
2019-03-29T10:54:06.437Z,84.38
2019-03-29T10:55:06.413Z,90.00
2019-03-29T10:56:06.400Z,90.00
2019-03-29T10:57:06.391Z,90.00
2019-03-29T10:58:09.480Z,90.00
2019-03-29T10:59:06.429Z,90.00
2019-03-29T11:00:06.393Z,90.00
2019-03-29T11:01:06.414Z,90.00
2019-03-29T11:02:06.336Z,90.00
2019-03-29T11:03:06.328Z,90.00
2019-03-29T11:04:06.468Z,90.00
2019-03-29T11:05:06.296Z,90.00
2019-03-29T11:06:06.303Z,90.00
2019-03-29T11:07:06.379Z,90.00
2019-03-29T11:08:06.266Z,90.00
2019-03-29T11:09:06.315Z,90.00
2019-03-29T11:10:13.548Z,90.00
2019-03-29T11:11:06.246Z,90.00
2019-03-29T11:12:07.032Z,90.00
2019-03-29T11:13:13.350Z,90.00
2019-03-29T11:14:07.200Z,90.00
2019-03-29T11:15:06.744Z,90.00
2019-03-29T11:16:06.177Z,90.00
2019-03-29T11:17:06.177Z,95.62
2019-03-29T11:18:06.190Z,95.62
2019-03-29T11:19:06.144Z,95.62
2019-03-29T11:20:06.131Z,95.62
2019-03-29T11:21:06.129Z,95.62
2019-03-29T11:22:06.112Z,95.62
2019-03-29T11:23:06.104Z,95.62
2019-03-29T11:24:08.954Z,95.62
2019-03-29T11:25:06.078Z,95.62
2019-03-29T11:26:06.082Z,95.62
2019-03-29T11:27:06.065Z,95.62
2019-03-29T11:28:06.095Z,95.62
2019-03-29T11:29:06.038Z,95.62
2019-03-29T11:30:06.026Z,95.62
2019-03-29T11:31:06.169Z,95.62
2019-03-29T11:32:05.997Z,95.62
2019-03-29T11:33:06.042Z,95.62
2019-03-29T11:34:05.992Z,101.25
2019-03-29T11:35:05.983Z,101.25
2019-03-29T11:36:05.956Z,101.25
2019-03-29T11:37:05.949Z,101.25
2019-03-29T11:38:05.940Z,101.25
2019-03-29T11:39:05.964Z,101.25
2019-03-29T11:40:05.919Z,101.25
2019-03-29T11:41:05.927Z,101.25
2019-03-29T11:42:05.924Z,101.25
2019-03-29T11:43:05.916Z,101.25
2019-03-29T11:44:05.872Z,101.25
2019-03-29T11:45:05.974Z,101.25
2019-03-29T11:46:05.845Z,101.25
2019-03-29T11:47:05.877Z,101.25
2019-03-29T11:48:08.703Z,101.25
2019-03-29T11:49:05.823Z,106.88
2019-03-29T11:50:05.912Z,101.25
2019-03-29T11:51:18.612Z,106.88
2019-03-29T11:52:06.778Z,106.88
2019-03-29T11:53:05.780Z,106.88
2019-03-29T11:54:05.767Z,106.88
2019-03-29T11:55:05.882Z,106.88
2019-03-29T11:56:05.778Z,106.88
2019-03-29T11:57:05.723Z,106.88
2019-03-29T11:58:05.787Z,106.88
2019-03-29T11:59:05.707Z,112.50
2019-03-29T12:00:05.713Z,112.50
2019-03-29T12:01:05.729Z,112.50
2019-03-29T12:02:05.675Z,112.50
2019-03-29T12:03:08.832Z,112.50
2019-03-29T12:04:05.643Z,112.50
2019-03-29T12:05:05.637Z,112.50
2019-03-29T12:06:05.621Z,112.50
2019-03-29T12:07:05.606Z,112.50
2019-03-29T12:08:05.598Z,112.50
2019-03-29T12:09:05.622Z,112.50
2019-03-29T12:10:05.570Z,112.50
2019-03-29T12:11:05.708Z,112.50
2019-03-29T12:12:05.563Z,118.12
2019-03-29T12:13:05.534Z,118.12
2019-03-29T12:14:05.600Z,118.12
2019-03-29T12:15:05.540Z,118.12
2019-03-29T12:16:05.519Z,118.12
2019-03-29T12:17:05.519Z,118.12
2019-03-29T12:18:05.528Z,118.12
2019-03-29T12:19:05.578Z,118.12
2019-03-29T12:20:05.478Z,118.12
2019-03-29T12:21:05.454Z,118.12
2019-03-29T12:22:05.451Z,123.75
2019-03-29T12:23:05.420Z,123.75
2019-03-29T12:24:05.427Z,129.38
2019-03-29T12:25:05.455Z,135.00
2019-03-29T12:26:05.410Z,146.25
2019-03-29T12:27:05.406Z,151.88
2019-03-29T12:28:05.383Z,151.88
2019-03-29T12:29:05.379Z,151.88
2019-03-29T12:30:05.986Z,157.50
2019-03-29T12:31:05.385Z,157.50
2019-03-29T12:32:05.352Z,163.12
2019-03-29T12:33:05.324Z,157.50
2019-03-29T12:34:05.309Z,157.50
2019-03-29T12:35:05.287Z,163.12
2019-03-29T12:36:05.311Z,168.75
2019-03-29T12:37:05.309Z,202.50
2019-03-29T12:38:05.279Z,933.75
2019-03-29T12:39:05.298Z,1755.00
2019-03-29T12:40:05.274Z,1822.50
2019-03-29T12:41:05.252Z,1816.88
2019-03-29T12:42:05.214Z,1743.75
2019-03-29T12:43:05.233Z,1743.75
2019-03-29T12:44:05.194Z,1878.75
2019-03-29T12:45:05.213Z,1901.25
2019-03-29T12:46:05.210Z,1783.12
2019-03-29T12:47:05.176Z,1828.12
2019-03-29T12:48:05.211Z,1845.00
2019-03-29T12:49:05.195Z,1760.62
2019-03-29T12:50:05.143Z,1766.25
2019-03-29T12:51:05.133Z,1805.62
2019-03-29T12:52:05.120Z,1816.88
2019-03-29T12:53:05.102Z,1732.50
2019-03-29T12:54:05.169Z,1681.88
2019-03-29T12:55:05.089Z,1704.38
2019-03-29T12:56:05.066Z,1614.38
2019-03-29T12:57:06.871Z,1468.12
2019-03-29T12:58:05.068Z,1642.50
2019-03-29T12:59:05.032Z,1704.38
2019-03-29T13:00:05.091Z,1659.38